sensor_id;sensor_type;location;lat;lon;timestamp;P1;durP1;ratioP1;P2;durP2;ratioP2
36321;SDS011;23564;48.290;11.460;2022-12-29T00:01:16;7.65;;;2.80;;
36321;SDS011;23564;48.290;11.460;2022-12-29T00:03:42;7.13;;;3.40;;
36321;SDS011;23564;48.290;11.460;2022-12-29T00:06:10;5.28;;;2.85;;
36321;SDS011;23564;48.290;11.460;2022-12-29T00:08:35;6.28;;;3.30;;
36321;SDS011;23564;48.290;11.460;2022-12-29T00:11:11;6.13;;;2.85;;
36321;SDS011;23564;48.290;11.460;2022-12-29T00:13:39;5.53;;;2.95;;
36321;SDS011;23564;48.290;11.460;2022-12-29T00:16:23;6.63;;;3.55;;
36321;SDS011;23564;48.290;11.460;2022-12-29T00:18:49;6.20;;;2.92;;
36321;SDS011;23564;48.290;11.460;2022-12-29T00:21:19;4.93;;;2.90;;
36321;SDS011;23564;48.290;11.460;2022-12-29T00:24:04;4.50;;;2.47;;
36321;SDS011;23564;48.290;11.460;2022-12-29T00:27:08;5.18;;;2.95;;
36321;SDS011;23564;48.290;11.460;2022-12-29T00:29:55;6.60;;;2.67;;
36321;SDS011;23564;48.290;11.460;2022-12-29T00:32:39;8.48;;;3.60;;
36321;SDS011;23564;48.290;11.460;2022-12-29T00:35:28;4.65;;;2.40;;
36321;SDS011;23564;48.290;11.460;2022-12-29T00:37:57;5.15;;;3.15;;
36321;SDS011;23564;48.290;11.460;2022-12-29T00:40:46;5.15;;;2.50;;
36321;SDS011;23564;48.290;11.460;2022-12-29T00:43:30;5.22;;;2.60;;
36321;SDS011;23564;48.290;11.460;2022-12-29T00:46:14;5.40;;;2.78;;
36321;SDS011;23564;48.290;11.460;2022-12-29T00:48:40;6.18;;;2.38;;
36321;SDS011;23564;48.290;11.460;2022-12-29T00:51:24;4.00;;;2.40;;
36321;SDS011;23564;48.290;11.460;2022-12-29T00:53:49;3.63;;;2.30;;
36321;SDS011;23564;48.290;11.460;2022-12-29T00:56:15;4.30;;;2.35;;
36321;SDS011;23564;48.290;11.460;2022-12-29T00:58:41;7.20;;;2.92;;
36321;SDS011;23564;48.290;11.460;2022-12-29T01:01:07;4.50;;;2.00;;
36321;SDS011;23564;48.290;11.460;2022-12-29T01:03:34;2.88;;;1.67;;
36321;SDS011;23564;48.290;11.460;2022-12-29T01:06:03;3.38;;;1.92;;
36321;SDS011;23564;48.290;11.460;2022-12-29T01:08:30;3.20;;;2.25;;
36321;SDS011;23564;48.290;11.460;2022-12-29T01:10:59;4.25;;;2.08;;
36321;SDS011;23564;48.290;11.460;2022-12-29T01:13:29;5.68;;;1.90;;
36321;SDS011;23564;48.290;11.460;2022-12-29T01:15:55;3.50;;;1.67;;
36321;SDS011;23564;48.290;11.460;2022-12-29T01:18:21;2.58;;;1.70;;
36321;SDS011;23564;48.290;11.460;2022-12-29T01:20:48;3.05;;;1.80;;
36321;SDS011;23564;48.290;11.460;2022-12-29T01:23:13;3.38;;;1.70;;
36321;SDS011;23564;48.290;11.460;2022-12-29T01:25:39;4.43;;;1.77;;
36321;SDS011;23564;48.290;11.460;2022-12-29T01:28:05;5.80;;;1.75;;
36321;SDS011;23564;48.290;11.460;2022-12-29T01:30:33;2.53;;;1.60;;
36321;SDS011;23564;48.290;11.460;2022-12-29T01:32:59;2.42;;;1.58;;
36321;SDS011;23564;48.290;11.460;2022-12-29T01:35:24;4.03;;;1.77;;
36321;SDS011;23564;48.290;11.460;2022-12-29T01:37:50;6.10;;;1.83;;
36321;SDS011;23564;48.290;11.460;2022-12-29T01:40:15;2.97;;;1.52;;
36321;SDS011;23564;48.290;11.460;2022-12-29T01:42:41;7.28;;;1.63;;
36321;SDS011;23564;48.290;11.460;2022-12-29T01:45:11;2.33;;;1.42;;
36321;SDS011;23564;48.290;11.460;2022-12-29T01:47:38;2.92;;;1.30;;
36321;SDS011;23564;48.290;11.460;2022-12-29T01:50:09;2.90;;;1.33;;
36321;SDS011;23564;48.290;11.460;2022-12-29T01:52:45;3.72;;;1.60;;
36321;SDS011;23564;48.290;11.460;2022-12-29T01:55:21;3.75;;;1.42;;
36321;SDS011;23564;48.290;11.460;2022-12-29T01:57:48;2.30;;;1.25;;
36321;SDS011;23564;48.290;11.460;2022-12-29T02:00:16;3.38;;;1.70;;
36321;SDS011;23564;48.290;11.460;2022-12-29T02:02:43;2.10;;;1.30;;
36321;SDS011;23564;48.290;11.460;2022-12-29T02:05:18;2.42;;;1.08;;
36321;SDS011;23564;48.290;11.460;2022-12-29T02:07:45;2.05;;;1.08;;
36321;SDS011;23564;48.290;11.460;2022-12-29T02:10:13;4.55;;;1.75;;
36321;SDS011;23564;48.290;11.460;2022-12-29T02:12:38;2.20;;;1.30;;
36321;SDS011;23564;48.290;11.460;2022-12-29T02:15:05;3.20;;;1.73;;
36321;SDS011;23564;48.290;11.460;2022-12-29T02:23:28;2.53;;;1.10;;
36321;SDS011;23564;48.290;11.460;2022-12-29T02:35:28;2.05;;;1.23;;
36321;SDS011;23564;48.290;11.460;2022-12-29T02:38:21;1.45;;;0.80;;
36321;SDS011;23564;48.290;11.460;2022-12-29T02:41:02;1.98;;;1.20;;
36321;SDS011;23564;48.290;11.460;2022-12-29T02:43:39;2.88;;;1.33;;
36321;SDS011;23564;48.290;11.460;2022-12-29T02:48:45;2.60;;;1.38;;
36321;SDS011;23564;48.290;11.460;2022-12-29T02:53:49;1.85;;;1.15;;
36321;SDS011;23564;48.290;11.460;2022-12-29T02:56:36;1.00;;;0.90;;
36321;SDS011;23564;48.290;11.460;2022-12-29T02:59:01;1.77;;;0.95;;
36321;SDS011;23564;48.290;11.460;2022-12-29T03:04:20;1.20;;;0.82;;
36321;SDS011;23564;48.290;11.460;2022-12-29T03:07:03;1.90;;;1.05;;
36321;SDS011;23564;48.290;11.460;2022-12-29T03:10:01;2.35;;;0.70;;
36321;SDS011;23564;48.290;11.460;2022-12-29T03:12:54;1.73;;;1.08;;
36321;SDS011;23564;48.290;11.460;2022-12-29T03:15:55;3.95;;;0.80;;
36321;SDS011;23564;48.290;11.460;2022-12-29T03:18:34;3.15;;;0.90;;
36321;SDS011;23564;48.290;11.460;2022-12-29T03:21:08;1.63;;;0.80;;
36321;SDS011;23564;48.290;11.460;2022-12-29T03:23:41;1.17;;;0.85;;
36321;SDS011;23564;48.290;11.460;2022-12-29T03:26:12;1.80;;;0.70;;
36321;SDS011;23564;48.290;11.460;2022-12-29T03:28:45;1.95;;;1.02;;
36321;SDS011;23564;48.290;11.460;2022-12-29T03:31:22;1.90;;;0.90;;
36321;SDS011;23564;48.290;11.460;2022-12-29T03:33:49;1.88;;;1.20;;
36321;SDS011;23564;48.290;11.460;2022-12-29T03:36:19;2.72;;;0.90;;
36321;SDS011;23564;48.290;11.460;2022-12-29T03:38:58;1.50;;;0.90;;
36321;SDS011;23564;48.290;11.460;2022-12-29T03:41:28;4.03;;;1.05;;
36321;SDS011;23564;48.290;11.460;2022-12-29T03:43:56;4.35;;;0.95;;
36321;SDS011;23564;48.290;11.460;2022-12-29T03:46:22;2.10;;;0.80;;
36321;SDS011;23564;48.290;11.460;2022-12-29T03:48:47;1.60;;;0.93;;
36321;SDS011;23564;48.290;11.460;2022-12-29T03:51:13;1.88;;;0.98;;
36321;SDS011;23564;48.290;11.460;2022-12-29T03:53:38;1.75;;;0.90;;
36321;SDS011;23564;48.290;11.460;2022-12-29T03:56:04;1.70;;;1.10;;
36321;SDS011;23564;48.290;11.460;2022-12-29T03:58:30;2.15;;;0.80;;
36321;SDS011;23564;48.290;11.460;2022-12-29T04:00:56;2.00;;;1.23;;
36321;SDS011;23564;48.290;11.460;2022-12-29T04:03:21;2.22;;;1.08;;
36321;SDS011;23564;48.290;11.460;2022-12-29T04:05:47;1.30;;;0.65;;
36321;SDS011;23564;48.290;11.460;2022-12-29T04:08:13;1.15;;;0.60;;
36321;SDS011;23564;48.290;11.460;2022-12-29T04:10:38;1.00;;;0.60;;
36321;SDS011;23564;48.290;11.460;2022-12-29T04:13:04;1.05;;;0.95;;
36321;SDS011;23564;48.290;11.460;2022-12-29T04:15:29;1.33;;;0.65;;
36321;SDS011;23564;48.290;11.460;2022-12-29T04:17:55;4.95;;;1.00;;
36321;SDS011;23564;48.290;11.460;2022-12-29T04:20:20;0.75;;;0.60;;
36321;SDS011;23564;48.290;11.460;2022-12-29T04:23:05;1.25;;;0.90;;
36321;SDS011;23564;48.290;11.460;2022-12-29T04:25:31;1.48;;;0.55;;
36321;SDS011;23564;48.290;11.460;2022-12-29T04:27:57;0.88;;;0.57;;
36321;SDS011;23564;48.290;11.460;2022-12-29T04:30:23;2.25;;;1.00;;
36321;SDS011;23564;48.290;11.460;2022-12-29T04:32:49;2.72;;;0.80;;
36321;SDS011;23564;48.290;11.460;2022-12-29T04:35:15;8.48;;;2.53;;
36321;SDS011;23564;48.290;11.460;2022-12-29T04:37:40;1.38;;;0.88;;
36321;SDS011;23564;48.290;11.460;2022-12-29T04:40:06;1.15;;;0.77;;
36321;SDS011;23564;48.290;11.460;2022-12-29T04:42:35;2.55;;;0.85;;
36321;SDS011;23564;48.290;11.460;2022-12-29T04:45:00;2.05;;;1.73;;
36321;SDS011;23564;48.290;11.460;2022-12-29T04:47:26;1.52;;;0.80;;
36321;SDS011;23564;48.290;11.460;2022-12-29T04:49:52;7.75;;;0.90;;
36321;SDS011;23564;48.290;11.460;2022-12-29T04:52:17;1.42;;;0.73;;
36321;SDS011;23564;48.290;11.460;2022-12-29T04:54:43;1.83;;;0.68;;
36321;SDS011;23564;48.290;11.460;2022-12-29T04:57:08;1.10;;;0.75;;
36321;SDS011;23564;48.290;11.460;2022-12-29T04:59:34;1.45;;;0.85;;
36321;SDS011;23564;48.290;11.460;2022-12-29T05:01:59;1.27;;;0.70;;
36321;SDS011;23564;48.290;11.460;2022-12-29T05:04:25;0.82;;;0.65;;
36321;SDS011;23564;48.290;11.460;2022-12-29T05:06:50;0.98;;;0.80;;
36321;SDS011;23564;48.290;11.460;2022-12-29T05:09:16;2.17;;;1.08;;
36321;SDS011;23564;48.290;11.460;2022-12-29T05:11:41;5.80;;;1.17;;
36321;SDS011;23564;48.290;11.460;2022-12-29T05:14:07;2.13;;;1.27;;
36321;SDS011;23564;48.290;11.460;2022-12-29T05:16:33;2.22;;;1.30;;
36321;SDS011;23564;48.290;11.460;2022-12-29T05:18:58;2.83;;;1.70;;
36321;SDS011;23564;48.290;11.460;2022-12-29T05:21:24;3.55;;;2.08;;
36321;SDS011;23564;48.290;11.460;2022-12-29T05:23:49;3.40;;;1.85;;
36321;SDS011;23564;48.290;11.460;2022-12-29T05:26:15;4.65;;;2.35;;
36321;SDS011;23564;48.290;11.460;2022-12-29T05:28:41;5.90;;;2.08;;
36321;SDS011;23564;48.290;11.460;2022-12-29T05:31:06;4.40;;;2.22;;
36321;SDS011;23564;48.290;11.460;2022-12-29T05:33:32;3.53;;;2.03;;
36321;SDS011;23564;48.290;11.460;2022-12-29T05:36:03;3.53;;;1.10;;
36321;SDS011;23564;48.290;11.460;2022-12-29T05:38:32;2.80;;;1.55;;
36321;SDS011;23564;48.290;11.460;2022-12-29T05:40:58;1.27;;;0.93;;
36321;SDS011;23564;48.290;11.460;2022-12-29T05:43:24;1.80;;;1.60;;
36321;SDS011;23564;48.290;11.460;2022-12-29T05:45:49;2.20;;;1.20;;
36321;SDS011;23564;48.290;11.460;2022-12-29T05:48:16;2.13;;;1.17;;
36321;SDS011;23564;48.290;11.460;2022-12-29T05:50:41;1.88;;;0.95;;
36321;SDS011;23564;48.290;11.460;2022-12-29T05:53:07;2.88;;;1.20;;
36321;SDS011;23564;48.290;11.460;2022-12-29T05:55:32;1.98;;;1.42;;
36321;SDS011;23564;48.290;11.460;2022-12-29T05:57:58;3.47;;;1.20;;
36321;SDS011;23564;48.290;11.460;2022-12-29T06:00:24;1.30;;;0.85;;
36321;SDS011;23564;48.290;11.460;2022-12-29T06:02:50;3.65;;;0.70;;
36321;SDS011;23564;48.290;11.460;2022-12-29T06:05:15;1.23;;;0.75;;
36321;SDS011;23564;48.290;11.460;2022-12-29T06:07:41;1.25;;;0.73;;
36321;SDS011;23564;48.290;11.460;2022-12-29T06:10:07;3.08;;;0.73;;
36321;SDS011;23564;48.290;11.460;2022-12-29T06:12:33;2.40;;;0.73;;
36321;SDS011;23564;48.290;11.460;2022-12-29T06:14:58;1.65;;;0.88;;
36321;SDS011;23564;48.290;11.460;2022-12-29T06:17:24;4.72;;;0.93;;
36321;SDS011;23564;48.290;11.460;2022-12-29T06:19:49;1.65;;;0.90;;
36321;SDS011;23564;48.290;11.460;2022-12-29T06:22:15;1.63;;;0.70;;
36321;SDS011;23564;48.290;11.460;2022-12-29T06:24:40;3.50;;;0.95;;
36321;SDS011;23564;48.290;11.460;2022-12-29T06:27:06;2.53;;;1.00;;
36321;SDS011;23564;48.290;11.460;2022-12-29T06:29:32;0.90;;;0.55;;
36321;SDS011;23564;48.290;11.460;2022-12-29T06:31:57;1.85;;;0.98;;
36321;SDS011;23564;48.290;11.460;2022-12-29T06:34:26;3.08;;;1.50;;
36321;SDS011;23564;48.290;11.460;2022-12-29T06:36:51;3.13;;;0.82;;
36321;SDS011;23564;48.290;11.460;2022-12-29T06:39:17;1.95;;;0.90;;
36321;SDS011;23564;48.290;11.460;2022-12-29T06:41:42;3.13;;;0.65;;
36321;SDS011;23564;48.290;11.460;2022-12-29T06:44:08;2.63;;;0.77;;
36321;SDS011;23564;48.290;11.460;2022-12-29T06:46:33;2.30;;;1.13;;
36321;SDS011;23564;48.290;11.460;2022-12-29T06:48:59;3.17;;;1.15;;
36321;SDS011;23564;48.290;11.460;2022-12-29T06:51:24;2.28;;;1.10;;
36321;SDS011;23564;48.290;11.460;2022-12-29T06:53:50;4.80;;;1.38;;
36321;SDS011;23564;48.290;11.460;2022-12-29T06:56:16;4.25;;;1.02;;
36321;SDS011;23564;48.290;11.460;2022-12-29T06:58:41;2.40;;;1.13;;
36321;SDS011;23564;48.290;11.460;2022-12-29T07:01:07;4.25;;;1.00;;
36321;SDS011;23564;48.290;11.460;2022-12-29T07:03:32;3.33;;;1.00;;
36321;SDS011;23564;48.290;11.460;2022-12-29T07:05:58;1.92;;;0.90;;
36321;SDS011;23564;48.290;11.460;2022-12-29T07:08:24;1.65;;;0.88;;
36321;SDS011;23564;48.290;11.460;2022-12-29T07:10:49;3.20;;;1.38;;
36321;SDS011;23564;48.290;11.460;2022-12-29T07:13:15;1.92;;;0.90;;
36321;SDS011;23564;48.290;11.460;2022-12-29T07:15:40;3.15;;;1.23;;
36321;SDS011;23564;48.290;11.460;2022-12-29T07:18:06;1.52;;;0.63;;
36321;SDS011;23564;48.290;11.460;2022-12-29T07:20:32;1.48;;;0.88;;
36321;SDS011;23564;48.290;11.460;2022-12-29T07:22:57;2.25;;;0.85;;
36321;SDS011;23564;48.290;11.460;2022-12-29T07:25:23;3.22;;;1.40;;
36321;SDS011;23564;48.290;11.460;2022-12-29T07:27:49;2.38;;;0.80;;
36321;SDS011;23564;48.290;11.460;2022-12-29T07:30:15;7.53;;;1.25;;
36321;SDS011;23564;48.290;11.460;2022-12-29T07:32:40;1.35;;;0.77;;
36321;SDS011;23564;48.290;11.460;2022-12-29T07:35:06;1.23;;;0.73;;
36321;SDS011;23564;48.290;11.460;2022-12-29T07:37:32;6.68;;;2.53;;
36321;SDS011;23564;48.290;11.460;2022-12-29T07:39:58;4.60;;;1.42;;
36321;SDS011;23564;48.290;11.460;2022-12-29T07:42:23;3.47;;;1.98;;
36321;SDS011;23564;48.290;11.460;2022-12-29T07:44:49;3.78;;;1.50;;
36321;SDS011;23564;48.290;11.460;2022-12-29T07:47:14;2.03;;;1.10;;
36321;SDS011;23564;48.290;11.460;2022-12-29T07:49:40;1.80;;;0.95;;
36321;SDS011;23564;48.290;11.460;2022-12-29T07:52:05;3.00;;;1.00;;
36321;SDS011;23564;48.290;11.460;2022-12-29T07:54:31;1.30;;;0.80;;
36321;SDS011;23564;48.290;11.460;2022-12-29T07:56:56;3.70;;;1.00;;
36321;SDS011;23564;48.290;11.460;2022-12-29T07:59:24;2.13;;;1.35;;
36321;SDS011;23564;48.290;11.460;2022-12-29T08:01:50;2.60;;;1.00;;
36321;SDS011;23564;48.290;11.460;2022-12-29T08:04:16;1.85;;;0.80;;
36321;SDS011;23564;48.290;11.460;2022-12-29T08:06:41;1.85;;;0.80;;
36321;SDS011;23564;48.290;11.460;2022-12-29T08:09:07;3.63;;;0.93;;
36321;SDS011;23564;48.290;11.460;2022-12-29T08:11:33;1.25;;;0.80;;
36321;SDS011;23564;48.290;11.460;2022-12-29T08:13:59;3.05;;;1.10;;
36321;SDS011;23564;48.290;11.460;2022-12-29T08:16:24;3.50;;;1.17;;
36321;SDS011;23564;48.290;11.460;2022-12-29T08:18:50;2.60;;;0.90;;
36321;SDS011;23564;48.290;11.460;2022-12-29T08:21:15;2.88;;;0.82;;
36321;SDS011;23564;48.290;11.460;2022-12-29T08:23:41;3.60;;;0.95;;
36321;SDS011;23564;48.290;11.460;2022-12-29T08:26:06;1.38;;;0.70;;
36321;SDS011;23564;48.290;11.460;2022-12-29T08:28:32;3.70;;;0.98;;
36321;SDS011;23564;48.290;11.460;2022-12-29T08:30:59;2.72;;;0.98;;
36321;SDS011;23564;48.290;11.460;2022-12-29T08:33:26;1.90;;;0.75;;
36321;SDS011;23564;48.290;11.460;2022-12-29T08:35:52;2.05;;;0.88;;
36321;SDS011;23564;48.290;11.460;2022-12-29T08:38:17;1.25;;;0.80;;
36321;SDS011;23564;48.290;11.460;2022-12-29T08:40:43;4.15;;;0.80;;
36321;SDS011;23564;48.290;11.460;2022-12-29T08:43:09;3.40;;;0.90;;
36321;SDS011;23564;48.290;11.460;2022-12-29T08:45:34;1.42;;;0.98;;
36321;SDS011;23564;48.290;11.460;2022-12-29T08:48:00;3.55;;;0.77;;
36321;SDS011;23564;48.290;11.460;2022-12-29T08:50:26;3.88;;;0.90;;
36321;SDS011;23564;48.290;11.460;2022-12-29T08:52:51;9.27;;;0.98;;
36321;SDS011;23564;48.290;11.460;2022-12-29T08:55:17;2.53;;;0.95;;
36321;SDS011;23564;48.290;11.460;2022-12-29T08:57:42;2.65;;;0.82;;
36321;SDS011;23564;48.290;11.460;2022-12-29T09:00:08;3.17;;;1.27;;
36321;SDS011;23564;48.290;11.460;2022-12-29T09:02:34;1.88;;;1.10;;
36321;SDS011;23564;48.290;11.460;2022-12-29T09:04:59;1.45;;;0.77;;
36321;SDS011;23564;48.290;11.460;2022-12-29T09:07:25;2.60;;;1.10;;
36321;SDS011;23564;48.290;11.460;2022-12-29T09:09:51;3.08;;;1.10;;
36321;SDS011;23564;48.290;11.460;2022-12-29T09:12:17;5.03;;;1.00;;
36321;SDS011;23564;48.290;11.460;2022-12-29T09:14:43;5.10;;;1.00;;
36321;SDS011;23564;48.290;11.460;2022-12-29T09:17:09;1.50;;;0.70;;
36321;SDS011;23564;48.290;11.460;2022-12-29T09:19:53;2.85;;;0.93;;
36321;SDS011;23564;48.290;11.460;2022-12-29T09:22:20;8.38;;;1.15;;
36321;SDS011;23564;48.290;11.460;2022-12-29T09:24:45;4.05;;;1.00;;
36321;SDS011;23564;48.290;11.460;2022-12-29T09:27:11;2.17;;;0.88;;
36321;SDS011;23564;48.290;11.460;2022-12-29T09:29:36;5.93;;;1.00;;
36321;SDS011;23564;48.290;11.460;2022-12-29T09:32:02;3.50;;;1.10;;
36321;SDS011;23564;48.290;11.460;2022-12-29T09:34:27;1.75;;;0.65;;
36321;SDS011;23564;48.290;11.460;2022-12-29T09:36:53;4.97;;;0.90;;
36321;SDS011;23564;48.290;11.460;2022-12-29T09:39:19;3.45;;;1.20;;
36321;SDS011;23564;48.290;11.460;2022-12-29T09:47:25;3.30;;;1.10;;
36321;SDS011;23564;48.290;11.460;2022-12-29T09:52:22;3.25;;;0.95;;
36321;SDS011;23564;48.290;11.460;2022-12-29T09:55:10;5.10;;;1.30;;
36321;SDS011;23564;48.290;11.460;2022-12-29T09:57:47;3.05;;;1.15;;
36321;SDS011;23564;48.290;11.460;2022-12-29T10:00:23;6.03;;;0.98;;
36321;SDS011;23564;48.290;11.460;2022-12-29T10:13:36;2.28;;;1.40;;
36321;SDS011;23564;48.290;11.460;2022-12-29T10:16:07;5.53;;;1.30;;
36321;SDS011;23564;48.290;11.460;2022-12-29T10:26:38;12.90;;;1.40;;
36321;SDS011;23564;48.290;11.460;2022-12-29T10:29:08;3.53;;;1.50;;
36321;SDS011;23564;48.290;11.460;2022-12-29T10:31:44;5.82;;;1.67;;
36321;SDS011;23564;48.290;11.460;2022-12-29T10:34:25;2.47;;;1.15;;
36321;SDS011;23564;48.290;11.460;2022-12-29T10:37:15;2.78;;;1.30;;
36321;SDS011;23564;48.290;11.460;2022-12-29T10:39:54;4.25;;;1.20;;
36321;SDS011;23564;48.290;11.460;2022-12-29T10:42:28;5.70;;;1.80;;
36321;SDS011;23564;48.290;11.460;2022-12-29T10:44:58;4.03;;;0.98;;
36321;SDS011;23564;48.290;11.460;2022-12-29T10:47:25;5.10;;;0.98;;
36321;SDS011;23564;48.290;11.460;2022-12-29T10:49:54;3.95;;;1.00;;
36321;SDS011;23564;48.290;11.460;2022-12-29T10:52:23;1.77;;;0.90;;
36321;SDS011;23564;48.290;11.460;2022-12-29T10:54:51;11.45;;;1.10;;
36321;SDS011;23564;48.290;11.460;2022-12-29T10:57:40;5.05;;;1.35;;
36321;SDS011;23564;48.290;11.460;2022-12-29T11:05:19;3.03;;;1.10;;
36321;SDS011;23564;48.290;11.460;2022-12-29T11:13:03;1.45;;;0.77;;
36321;SDS011;23564;48.290;11.460;2022-12-29T11:15:42;3.05;;;0.95;;
36321;SDS011;23564;48.290;11.460;2022-12-29T11:18:21;2.58;;;1.13;;
36321;SDS011;23564;48.290;11.460;2022-12-29T11:20:55;2.35;;;1.10;;
36321;SDS011;23564;48.290;11.460;2022-12-29T11:23:35;2.15;;;0.85;;
36321;SDS011;23564;48.290;11.460;2022-12-29T11:28:31;2.38;;;0.63;;
36321;SDS011;23564;48.290;11.460;2022-12-29T11:31:01;1.52;;;0.70;;
36321;SDS011;23564;48.290;11.460;2022-12-29T11:33:28;2.85;;;0.80;;
36321;SDS011;23564;48.290;11.460;2022-12-29T11:36:37;1.60;;;0.52;;
36321;SDS011;23564;48.290;11.460;2022-12-29T11:38:46;1.42;;;0.63;;
36321;SDS011;23564;48.290;11.460;2022-12-29T11:41:18;2.70;;;0.77;;
36321;SDS011;23564;48.290;11.460;2022-12-29T11:43:47;5.15;;;1.23;;
36321;SDS011;23564;48.290;11.460;2022-12-29T11:46:20;1.17;;;0.50;;
36321;SDS011;23564;48.290;11.460;2022-12-29T11:48:50;1.60;;;0.70;;
36321;SDS011;23564;48.290;11.460;2022-12-29T11:51:23;4.15;;;0.90;;
36321;SDS011;23564;48.290;11.460;2022-12-29T11:53:56;4.63;;;1.05;;
36321;SDS011;23564;48.290;11.460;2022-12-29T11:56:40;2.38;;;1.00;;
36321;SDS011;23564;48.290;11.460;2022-12-29T12:01:52;2.15;;;0.88;;
36321;SDS011;23564;48.290;11.460;2022-12-29T12:04:19;11.07;;;1.05;;
36321;SDS011;23564;48.290;11.460;2022-12-29T12:09:35;1.95;;;0.75;;
36321;SDS011;23564;48.290;11.460;2022-12-29T12:12:08;4.85;;;1.13;;
36321;SDS011;23564;48.290;11.460;2022-12-29T12:14:46;2.67;;;0.60;;
36321;SDS011;23564;48.290;11.460;2022-12-29T12:17:26;1.63;;;0.75;;
36321;SDS011;23564;48.290;11.460;2022-12-29T12:20:04;1.90;;;0.80;;
36321;SDS011;23564;48.290;11.460;2022-12-29T12:22:49;4.90;;;0.85;;
36321;SDS011;23564;48.290;11.460;2022-12-29T12:25:27;1.67;;;0.80;;
36321;SDS011;23564;48.290;11.460;2022-12-29T12:28:11;1.95;;;0.95;;
36321;SDS011;23564;48.290;11.460;2022-12-29T12:30:54;2.22;;;1.10;;
36321;SDS011;23564;48.290;11.460;2022-12-29T12:33:27;1.80;;;0.82;;
36321;SDS011;23564;48.290;11.460;2022-12-29T12:36:04;1.52;;;1.05;;
36321;SDS011;23564;48.290;11.460;2022-12-29T12:38:51;5.47;;;1.10;;
36321;SDS011;23564;48.290;11.460;2022-12-29T12:41:38;4.30;;;0.93;;
36321;SDS011;23564;48.290;11.460;2022-12-29T12:44:28;1.27;;;0.82;;
36321;SDS011;23564;48.290;11.460;2022-12-29T12:47:27;2.55;;;1.15;;
36321;SDS011;23564;48.290;11.460;2022-12-29T13:00:12;1.58;;;0.70;;
36321;SDS011;23564;48.290;11.460;2022-12-29T13:05:30;1.38;;;0.70;;
36321;SDS011;23564;48.290;11.460;2022-12-29T13:08:18;4.75;;;0.65;;
36321;SDS011;23564;48.290;11.460;2022-12-29T13:14:01;1.48;;;0.50;;
36321;SDS011;23564;48.290;11.460;2022-12-29T13:25:24;2.40;;;0.60;;
36321;SDS011;23564;48.290;11.460;2022-12-29T13:28:21;3.10;;;0.52;;
36321;SDS011;23564;48.290;11.460;2022-12-29T13:30:57;5.57;;;0.80;;
36321;SDS011;23564;48.290;11.460;2022-12-29T13:33:49;2.00;;;0.80;;
36321;SDS011;23564;48.290;11.460;2022-12-29T13:36:33;1.85;;;0.90;;
36321;SDS011;23564;48.290;11.460;2022-12-29T13:39:13;4.40;;;0.98;;
36321;SDS011;23564;48.290;11.460;2022-12-29T13:41:48;2.70;;;0.98;;
36321;SDS011;23564;48.290;11.460;2022-12-29T13:44:17;1.33;;;0.60;;
36321;SDS011;23564;48.290;11.460;2022-12-29T13:46:56;2.60;;;0.70;;
36321;SDS011;23564;48.290;11.460;2022-12-29T13:49:26;2.38;;;0.77;;
36321;SDS011;23564;48.290;11.460;2022-12-29T13:51:54;1.10;;;0.50;;
36321;SDS011;23564;48.290;11.460;2022-12-29T13:54:35;2.28;;;0.88;;
36321;SDS011;23564;48.290;11.460;2022-12-29T14:00:14;5.25;;;1.27;;
36321;SDS011;23564;48.290;11.460;2022-12-29T14:07:45;2.28;;;0.52;;
36321;SDS011;23564;48.290;11.460;2022-12-29T14:15:42;4.03;;;0.95;;
36321;SDS011;23564;48.290;11.460;2022-12-29T14:18:29;2.25;;;0.70;;
36321;SDS011;23564;48.290;11.460;2022-12-29T14:21:00;3.85;;;0.90;;
36321;SDS011;23564;48.290;11.460;2022-12-29T14:28:37;2.53;;;0.70;;
36321;SDS011;23564;48.290;11.460;2022-12-29T14:31:07;3.60;;;0.80;;
36321;SDS011;23564;48.290;11.460;2022-12-29T14:34:38;3.38;;;0.85;;
36321;SDS011;23564;48.290;11.460;2022-12-29T14:36:40;1.77;;;0.80;;
36321;SDS011;23564;48.290;11.460;2022-12-29T14:39:28;3.50;;;0.82;;
36321;SDS011;23564;48.290;11.460;2022-12-29T14:44:48;4.75;;;1.70;;
36321;SDS011;23564;48.290;11.460;2022-12-29T14:49:51;2.05;;;0.98;;
36321;SDS011;23564;48.290;11.460;2022-12-29T14:52:27;2.42;;;1.15;;
36321;SDS011;23564;48.290;11.460;2022-12-29T14:54:56;1.73;;;1.23;;
36321;SDS011;23564;48.290;11.460;2022-12-29T14:57:35;2.53;;;1.13;;
36321;SDS011;23564;48.290;11.460;2022-12-29T15:02:43;2.80;;;1.00;;
36321;SDS011;23564;48.290;11.460;2022-12-29T15:05:22;4.50;;;0.93;;
36321;SDS011;23564;48.290;11.460;2022-12-29T15:07:52;1.33;;;0.90;;
36321;SDS011;23564;48.290;11.460;2022-12-29T15:10:20;2.78;;;1.13;;
36321;SDS011;23564;48.290;11.460;2022-12-29T15:12:52;4.50;;;2.47;;
36321;SDS011;23564;48.290;11.460;2022-12-29T15:15:21;11.18;;;5.43;;
36321;SDS011;23564;48.290;11.460;2022-12-29T15:17:48;4.15;;;2.50;;
36321;SDS011;23564;48.290;11.460;2022-12-29T15:20:34;4.28;;;1.25;;
36321;SDS011;23564;48.290;11.460;2022-12-29T15:23:17;2.83;;;0.88;;
36321;SDS011;23564;48.290;11.460;2022-12-29T15:25:50;1.40;;;0.77;;
36321;SDS011;23564;48.290;11.460;2022-12-29T15:28:46;1.30;;;0.80;;
36321;SDS011;23564;48.290;11.460;2022-12-29T15:31:13;1.38;;;0.80;;
36321;SDS011;23564;48.290;11.460;2022-12-29T15:33:44;2.90;;;1.27;;
36321;SDS011;23564;48.290;11.460;2022-12-29T15:36:21;2.55;;;1.15;;
36321;SDS011;23564;48.290;11.460;2022-12-29T15:38:49;2.97;;;0.98;;
36321;SDS011;23564;48.290;11.460;2022-12-29T15:46:22;1.30;;;0.90;;
36321;SDS011;23564;48.290;11.460;2022-12-29T15:48:48;4.47;;;1.17;;
36321;SDS011;23564;48.290;11.460;2022-12-29T15:51:20;2.45;;;1.38;;
36321;SDS011;23564;48.290;11.460;2022-12-29T15:53:54;5.35;;;2.83;;
36321;SDS011;23564;48.290;11.460;2022-12-29T15:56:20;3.17;;;1.80;;
36321;SDS011;23564;48.290;11.460;2022-12-29T15:58:49;4.07;;;1.55;;
36321;SDS011;23564;48.290;11.460;2022-12-29T16:01:17;3.60;;;1.20;;
36321;SDS011;23564;48.290;11.460;2022-12-29T16:03:53;3.42;;;0.90;;
36321;SDS011;23564;48.290;11.460;2022-12-29T16:06:29;5.72;;;1.05;;
36321;SDS011;23564;48.290;11.460;2022-12-29T16:09:16;4.38;;;0.90;;
36321;SDS011;23564;48.290;11.460;2022-12-29T16:11:46;3.65;;;1.08;;
36321;SDS011;23564;48.290;11.460;2022-12-29T16:14:18;2.38;;;1.02;;
36321;SDS011;23564;48.290;11.460;2022-12-29T16:16:49;1.23;;;0.88;;
36321;SDS011;23564;48.290;11.460;2022-12-29T16:19:18;2.97;;;1.10;;
36321;SDS011;23564;48.290;11.460;2022-12-29T16:21:52;2.08;;;1.15;;
36321;SDS011;23564;48.290;11.460;2022-12-29T16:24:19;4.18;;;1.20;;
36321;SDS011;23564;48.290;11.460;2022-12-29T16:26:51;1.90;;;1.00;;
36321;SDS011;23564;48.290;11.460;2022-12-29T16:29:31;1.50;;;0.85;;
36321;SDS011;23564;48.290;11.460;2022-12-29T16:31:58;1.83;;;1.00;;
36321;SDS011;23564;48.290;11.460;2022-12-29T16:34:31;6.95;;;1.25;;
36321;SDS011;23564;48.290;11.460;2022-12-29T16:36:59;1.50;;;0.88;;
36321;SDS011;23564;48.290;11.460;2022-12-29T16:41:56;3.22;;;1.45;;
36321;SDS011;23564;48.290;11.460;2022-12-29T16:44:26;2.95;;;1.33;;
36321;SDS011;23564;48.290;11.460;2022-12-29T16:47:04;6.15;;;1.70;;
36321;SDS011;23564;48.290;11.460;2022-12-29T16:49:43;2.67;;;1.30;;
36321;SDS011;23564;48.290;11.460;2022-12-29T16:52:29;3.60;;;0.93;;
36321;SDS011;23564;48.290;11.460;2022-12-29T16:54:59;1.70;;;1.08;;
36321;SDS011;23564;48.290;11.460;2022-12-29T16:57:29;3.42;;;1.13;;
36321;SDS011;23564;48.290;11.460;2022-12-29T17:00:00;2.70;;;1.52;;
36321;SDS011;23564;48.290;11.460;2022-12-29T17:02:30;2.15;;;1.00;;